Time;durP1;ratioP1;P1;durP2;ratioP2;P2;SDS_P1;SDS_P2;PMS_P1;PMS_P2;Temp;Humidity;BMP_temperature;BMP_pressure;BME280_temperature;BME280_humidity;BME280_pressure;Samples;Min_cycle;Max_cycle;Signal;HPM_P1;HPM_P2
2021/12/01 00:00:51;;;;;;;0.88;0.82;;;9.20;99.90;;;;;;5074269;28;20173;-41
2021/12/01 00:03:17;;;;;;;0.77;0.77;;;9.20;99.90;;;;;;5074223;28;20618;-41
2021/12/01 00:05:43;;;;;;;1.77;1.65;;;9.20;99.90;;;;;;5074144;28;20184;-41
2021/12/01 00:08:09;;;;;;;1.30;0.70;;;9.20;99.90;;;;;;5073993;28;20206;-41
2021/12/01 00:10:36;;;;;;;0.98;0.68;;;9.20;99.90;;;;;;5074344;28;20206;-41
2021/12/01 00:13:05;;;;;;;0.68;0.65;;;9.20;99.90;;;;;;5074301;28;20677;-41
2021/12/01 00:15:31;;;;;;;0.43;0.43;;;9.30;99.90;;;;;;5073879;28;20638;-41
2021/12/01 00:17:57;;;;;;;1.10;0.70;;;9.20;99.90;;;;;;5074162;28;20561;-43
2021/12/01 00:20:23;;;;;;;5.15;1.08;;;9.30;99.90;;;;;;5073720;28;20210;-43
2021/12/01 00:22:49;;;;;;;0.57;0.57;;;9.30;99.90;;;;;;5073792;28;20162;-43
2021/12/01 00:25:18;;;;;;;0.50;0.50;;;9.30;99.90;;;;;;5074003;28;20162;-43
2021/12/01 00:27:44;;;;;;;0.57;0.57;;;9.30;99.90;;;;;;5074062;28;20176;-43
2021/12/01 00:30:10;;;;;;;1.55;1.10;;;9.30;99.90;;;;;;5073746;28;20155;-43
2021/12/01 00:32:36;;;;;;;1.17;1.10;;;9.30;99.90;;;;;;5073682;28;20235;-45
2021/12/01 00:35:05;;;;;;;0.93;0.80;;;9.30;99.90;;;;;;5073519;28;20193;-43
2021/12/01 00:37:30;;;;;;;1.63;0.73;;;9.40;99.90;;;;;;5073596;28;20166;-43
2021/12/01 00:39:56;;;;;;;1.23;1.10;;;9.40;99.90;;;;;;5073518;28;20565;-44
2021/12/01 00:42:22;;;;;;;3.88;1.20;;;9.40;99.90;;;;;;5073777;28;20253;-43
2021/12/01 00:44:53;;;;;;;1.10;0.93;;;9.40;99.90;;;;;;5073716;28;20548;-43
2021/12/01 00:47:22;;;;;;;0.73;0.73;;;9.40;99.90;;;;;;5073583;28;20178;-43
2021/12/01 00:49:48;;;;;;;1.98;1.05;;;9.40;99.90;;;;;;5073498;28;20178;-43
2021/12/01 00:52:13;;;;;;;1.92;1.13;;;9.30;99.90;;;;;;5073244;28;20233;-43
2021/12/01 00:54:39;;;;;;;0.80;0.77;;;9.40;99.90;;;;;;5073270;28;20506;-42
2021/12/01 00:57:05;;;;;;;3.90;0.90;;;9.40;99.90;;;;;;5073143;28;20686;-44
2021/12/01 00:59:31;;;;;;;1.60;1.38;;;9.30;99.90;;;;;;5073011;28;20209;-43
2021/12/01 01:01:57;;;;;;;1.63;1.00;;;9.30;99.90;;;;;;5072760;28;20174;-44
2021/12/01 01:04:23;;;;;;;4.68;1.25;;;9.30;99.90;;;;;;5073277;28;20628;-44
2021/12/01 01:06:49;;;;;;;2.65;1.25;;;9.40;99.90;;;;;;5073205;28;20243;-44
2021/12/01 01:09:14;;;;;;;1.63;1.40;;;9.40;99.90;;;;;;5072742;28;20684;-43
2021/12/01 01:17:18;;;;;;;0.70;0.63;;;9.30;99.90;;;;;;5073052;28;20579;-43
2021/12/01 01:19:44;;;;;;;1.23;0.88;;;9.30;99.90;;;;;;5072511;28;20666;-43
2021/12/01 01:22:10;;;;;;;1.05;0.88;;;9.30;99.90;;;;;;5072906;28;20185;-43
2021/12/01 01:24:36;;;;;;;0.60;0.60;;;9.30;99.90;;;;;;5072636;28;20614;-43
2021/12/01 01:27:02;;;;;;;1.42;0.80;;;9.30;99.90;;;;;;5072621;28;20672;-43
2021/12/01 01:29:28;;;;;;;1.38;1.05;;;9.30;99.90;;;;;;5072569;28;20295;-43
2021/12/01 01:31:56;;;;;;;0.65;0.65;;;9.30;99.90;;;;;;5072641;28;20166;-43
2021/12/01 01:34:24;;;;;;;1.20;1.10;;;9.30;99.90;;;;;;5072305;28;20618;-43
2021/12/01 01:36:50;;;;;;;1.90;1.05;;;9.30;99.90;;;;;;5072500;28;20165;-43
2021/12/01 01:39:17;;;;;;;2.47;0.73;;;9.30;99.90;;;;;;5072302;28;20233;-43
2021/12/01 01:41:42;;;;;;;1.13;0.90;;;9.30;99.90;;;;;;5072320;28;20232;-43
2021/12/01 01:44:08;;;;;;;3.30;1.48;;;9.30;99.90;;;;;;5072400;28;20170;-42
2021/12/01 01:46:36;;;;;;;1.05;0.70;;;9.20;99.90;;;;;;5072267;28;20162;-43
2021/12/01 01:49:10;;;;;;;2.17;1.50;;;9.20;99.90;;;;;;5072171;28;20252;-43
2021/12/01 01:51:37;;;;;;;0.80;0.80;;;9.20;99.90;;;;;;5072240;28;20166;-43
2021/12/01 01:54:03;;;;;;;1.30;1.17;;;9.20;99.90;;;;;;5072417;28;20170;-43
2021/12/01 01:56:29;;;;;;;0.98;0.90;;;9.20;99.90;;;;;;5072138;28;20224;-43
2021/12/01 01:58:55;;;;;;;1.50;1.38;;;9.20;99.90;;;;;;5072427;28;20254;-43
2021/12/01 02:03:57;;;;;;;1.50;1.38;;;9.20;99.90;;;;;;5072334;28;20166;-43
2021/12/01 02:06:23;;;;;;;1.92;1.80;;;9.20;99.90;;;;;;5072399;28;20186;-43
2021/12/01 02:08:50;;;;;;;1.60;1.38;;;9.10;99.90;;;;;;5071816;28;20229;-44
2021/12/01 02:11:18;;;;;;;2.20;1.98;;;9.10;99.90;;;;;;5071947;28;20653;-43
2021/12/01 02:13:44;;;;;;;1.80;1.48;;;9.10;99.90;;;;;;5071905;28;20212;-43
2021/12/01 02:16:12;;;;;;;2.05;1.50;;;9.10;99.90;;;;;;5072242;28;20204;-42
2021/12/01 02:18:39;;;;;;;2.22;1.92;;;9.10;99.90;;;;;;5071894;28;20245;-43
2021/12/01 02:21:11;;;;;;;7.30;2.30;;;9.10;99.90;;;;;;5071869;28;20203;-42
2021/12/01 02:23:39;;;;;;;2.28;2.08;;;9.10;99.90;;;;;;5071866;28;20185;-43
2021/12/01 02:26:05;;;;;;;1.80;1.50;;;9.00;99.90;;;;;;5071828;28;20170;-43
2021/12/01 02:28:31;;;;;;;1.80;1.50;;;9.00;99.90;;;;;;5071701;28;20215;-43
2021/12/01 02:30:58;;;;;;;2.40;2.17;;;9.00;99.90;;;;;;5072086;28;20249;-43
2021/12/01 02:33:24;;;;;;;2.33;1.90;;;9.00;99.90;;;;;;5072096;28;20161;-43
2021/12/01 02:35:50;;;;;;;1.50;1.40;;;9.00;99.90;;;;;;5072039;28;20260;-42
2021/12/01 02:38:16;;;;;;;2.00;1.80;;;9.00;99.90;;;;;;5071863;28;20170;-43
2021/12/01 02:40:42;;;;;;;1.98;1.77;;;9.00;99.90;;;;;;5071858;28;20217;-43
2021/12/01 02:43:08;;;;;;;3.50;1.85;;;9.00;99.90;;;;;;5071843;28;20168;-43
2021/12/01 02:45:34;;;;;;;2.95;2.10;;;9.00;99.90;;;;;;5075259;28;20166;-42
2021/12/01 02:47:59;;;;;;;2.42;2.10;;;9.00;99.90;;;;;;5075873;28;20166;-42
2021/12/01 02:50:25;;;;;;;3.05;2.72;;;9.00;99.90;;;;;;5075966;28;20170;-43
2021/12/01 02:52:50;;;;;;;2.63;2.38;;;8.90;99.90;;;;;;5075678;28;20177;-43
2021/12/01 02:55:19;;;;;;;2.53;2.20;;;9.00;99.90;;;;;;5075549;28;20695;-43
2021/12/01 02:57:51;;;;;;;3.13;2.45;;;8.90;99.90;;;;;;5075585;28;20213;-42
2021/12/01 03:00:19;;;;;;;2.92;2.33;;;9.00;99.90;;;;;;5075563;28;20237;-43
2021/12/01 03:02:45;;;;;;;2.65;2.45;;;9.00;99.90;;;;;;5075365;28;20204;-43
2021/12/01 03:05:11;;;;;;;3.05;2.75;;;9.00;99.90;;;;;;5075297;28;20166;-43
2021/12/01 03:07:38;;;;;;;2.85;2.55;;;9.00;99.90;;;;;;5075342;28;20166;-43
2021/12/01 03:10:05;;;;;;;3.53;2.80;;;9.00;99.90;;;;;;5075037;28;20297;-43
2021/12/01 03:12:33;;;;;;;2.97;2.55;;;9.00;99.90;;;;;;5075188;28;20208;-43
2021/12/01 03:14:58;;;;;;;4.40;3.05;;;9.00;99.90;;;;;;5075092;28;20174;-43
2021/12/01 03:17:29;;;;;;;2.72;2.25;;;9.00;99.90;;;;;;5075420;28;20731;-43
2021/12/01 03:19:55;;;;;;;3.22;2.10;;;9.00;99.90;;;;;;5075281;28;20198;-43
2021/12/01 03:22:22;;;;;;;3.10;2.80;;;9.00;99.90;;;;;;5075418;28;20174;-43
2021/12/01 03:24:48;;;;;;;3.22;2.40;;;9.00;99.90;;;;;;5075247;28;20174;-43
2021/12/01 03:27:15;;;;;;;3.47;2.75;;;9.00;99.90;;;;;;5075231;28;20249;-42
2021/12/01 03:29:40;;;;;;;4.15;3.10;;;9.00;99.90;;;;;;5074893;28;20245;-43
2021/12/01 03:32:07;;;;;;;2.80;2.33;;;9.00;99.90;;;;;;5075067;28;20323;-41
2021/12/01 03:34:35;;;;;;;2.08;1.80;;;9.00;99.90;;;;;;5074855;28;20645;-43
2021/12/01 03:37:01;;;;;;;3.35;2.60;;;9.00;99.90;;;;;;5074762;28;20596;-43
2021/12/01 03:39:26;;;;;;;3.00;2.70;;;9.00;99.90;;;;;;5074629;28;20292;-43
2021/12/01 03:41:52;;;;;;;2.53;2.30;;;9.00;99.90;;;;;;5074938;28;20173;-43
2021/12/01 03:44:18;;;;;;;3.20;2.22;;;9.00;99.90;;;;;;5074638;28;20209;-43
2021/12/01 03:46:43;;;;;;;6.43;2.88;;;9.00;99.90;;;;;;5074645;28;20211;-43
2021/12/01 03:49:09;;;;;;;3.83;2.72;;;9.00;99.90;;;;;;5074702;28;20246;-42
2021/12/01 03:51:35;;;;;;;4.03;3.13;;;9.00;99.90;;;;;;5074621;28;20618;-43
2021/12/01 03:54:01;;;;;;;6.85;3.28;;;8.90;99.90;;;;;;5074697;28;20223;-43
2021/12/01 03:56:26;;;;;;;3.67;2.92;;;8.90;99.90;;;;;;5073779;28;20633;-43
2021/12/01 03:58:53;;;;;;;4.78;3.35;;;8.80;99.90;;;;;;5074665;28;20166;-43
2021/12/01 04:01:19;;;;;;;4.63;2.72;;;8.80;99.90;;;;;;5074352;28;20592;-43
2021/12/01 04:03:45;;;;;;;2.97;2.42;;;8.80;99.90;;;;;;5074229;28;20535;-43
2021/12/01 04:06:11;;;;;;;3.35;2.70;;;8.80;99.90;;;;;;5074270;28;20166;-43
2021/12/01 04:08:37;;;;;;;2.33;2.03;;;8.80;99.90;;;;;;5074030;28;20746;-43
2021/12/01 04:11:03;;;;;;;2.95;2.28;;;8.80;99.90;;;;;;5074399;28;20212;-43
2021/12/01 04:13:29;;;;;;;2.80;2.50;;;8.80;99.90;;;;;;5073800;28;20653;-42
2021/12/01 04:15:54;;;;;;;5.30;2.70;;;8.70;99.90;;;;;;5074026;28;20637;-43
2021/12/01 04:18:20;;;;;;;3.03;2.70;;;8.70;99.90;;;;;;5074084;28;20538;-43
2021/12/01 04:20:46;;;;;;;5.40;2.53;;;8.70;99.90;;;;;;5073726;28;20218;-43
2021/12/01 04:23:11;;;;;;;4.40;3.35;;;8.70;99.90;;;;;;5073845;28;20177;-43
2021/12/01 04:25:37;;;;;;;2.83;2.20;;;8.70;99.90;;;;;;5073849;28;20299;-42
2021/12/01 04:28:03;;;;;;;2.50;2.30;;;8.70;99.90;;;;;;5074126;28;20531;-42
2021/12/01 04:30:29;;;;;;;5.18;3.03;;;8.70;99.90;;;;;;5073900;28;20185;-43
2021/12/01 04:32:56;;;;;;;6.18;3.65;;;8.70;99.90;;;;;;5074043;28;20216;-43
2021/12/01 04:35:24;;;;;;;5.80;3.03;;;8.70;99.90;;;;;;5074200;28;20177;-43
2021/12/01 04:37:49;;;;;;;4.78;2.65;;;8.70;99.90;;;;;;5073911;28;20174;-43
2021/12/01 04:40:16;;;;;;;6.00;2.40;;;8.70;99.90;;;;;;5073509;28;20543;-42
2021/12/01 04:42:43;;;;;;;4.38;2.38;;;8.70;99.90;;;;;;5073428;28;20208;-42
2021/12/01 04:45:14;;;;;;;2.65;2.13;;;8.70;99.90;;;;;;5073393;28;20170;-42
2021/12/01 04:47:51;;;;;;;4.68;2.63;;;8.60;99.90;;;;;;5073374;28;20164;-42
2021/12/01 04:50:19;;;;;;;3.45;2.05;;;8.70;99.90;;;;;;5072007;28;20197;-42
2021/12/01 04:52:46;;;;;;;5.90;2.40;;;8.70;99.90;;;;;;5073076;28;20162;-42
2021/12/01 04:55:12;;;;;;;2.28;2.03;;;8.70;99.90;;;;;;5073553;28;20196;-43
2021/12/01 04:57:41;;;;;;;2.58;1.92;;;8.70;99.90;;;;;;5073216;28;20166;-43
2021/12/01 05:00:09;;;;;;;2.90;1.90;;;8.70;99.90;;;;;;5073311;28;20209;-42
2021/12/01 05:02:35;;;;;;;1.98;1.75;;;8.70;99.90;;;;;;5073028;28;20161;-43
2021/12/01 05:05:01;;;;;;;2.17;1.33;;;8.70;99.90;;;;;;5073281;28;20177;-43
2021/12/01 05:07:26;;;;;;;2.63;1.85;;;8.70;99.90;;;;;;5072945;28;20640;-43
2021/12/01 05:09:52;;;;;;;3.53;1.88;;;8.70;99.90;;;;;;5072843;28;20296;-43
2021/12/01 05:12:17;;;;;;;2.03;1.80;;;8.70;99.90;;;;;;5072671;28;20509;-43
2021/12/01 05:14:43;;;;;;;2.20;1.30;;;8.80;99.90;;;;;;5072864;28;20170;-43
2021/12/01 05:17:08;;;;;;;1.88;1.70;;;8.80;99.90;;;;;;5072703;28;20166;-43
2021/12/01 05:19:35;;;;;;;2.38;1.50;;;8.80;99.90;;;;;;5072733;28;20202;-43
2021/12/01 05:22:02;;;;;;;3.75;1.58;;;8.80;99.90;;;;;;5072423;28;20166;-43
2021/12/01 05:24:28;;;;;;;3.60;1.35;;;8.80;99.90;;;;;;5072770;28;20174;-44
2021/12/01 05:26:53;;;;;;;1.23;1.05;;;8.80;99.90;;;;;;5072908;28;20216;-42
2021/12/01 05:29:21;;;;;;;2.45;1.10;;;8.80;99.90;;;;;;5072188;28;20169;-42
2021/12/01 05:31:47;;;;;;;1.25;1.15;;;8.80;99.90;;;;;;5072635;28;20173;-43
2021/12/01 05:34:13;;;;;;;1.77;1.33;;;8.80;99.90;;;;;;5072205;28;20633;-43
2021/12/01 05:36:39;;;;;;;2.35;1.48;;;8.80;99.90;;;;;;5072391;28;20173;-42
2021/12/01 05:39:05;;;;;;;3.97;1.50;;;8.80;99.90;;;;;;5072015;28;20190;-43
2021/12/01 05:41:30;;;;;;;3.33;1.05;;;8.80;99.90;;;;;;5072604;28;20173;-42
2021/12/01 05:43:56;;;;;;;4.15;2.42;;;8.80;99.90;;;;;;5072283;28;20172;-44
2021/12/01 05:46:22;;;;;;;8.10;2.78;;;8.90;99.90;;;;;;5072712;28;20178;-44
2021/12/01 05:48:51;;;;;;;4.97;2.60;;;8.90;99.90;;;;;;5072265;28;20162;-44
2021/12/01 05:51:18;;;;;;;2.55;2.20;;;8.90;99.90;;;;;;5072544;28;20212;-43
2021/12/01 05:53:44;;;;;;;2.78;2.05;;;8.90;99.90;;;;;;5070952;28;20177;-44
2021/12/01 05:56:10;;;;;;;3.25;2.28;;;9.00;99.90;;;;;;5072319;28;20174;-43
2021/12/01 05:58:35;;;;;;;6.88;2.55;;;8.90;99.90;;;;;;5072226;28;20280;-43
2021/12/01 06:01:01;;;;;;;4.50;2.15;;;8.90;99.90;;;;;;5072005;28;20202;-43
2021/12/01 06:03:27;;;;;;;7.70;2.33;;;8.90;99.90;;;;;;5071990;28;20231;-43
2021/12/01 06:05:53;;;;;;;4.47;2.50;;;8.90;99.90;;;;;;5072768;28;20516;-43
2021/12/01 06:08:18;;;;;;;7.75;2.67;;;9.00;99.90;;;;;;5071477;28;20209;-43
2021/12/01 06:10:45;;;;;;;9.70;3.40;;;9.00;99.90;;;;;;5072006;28;20249;-43
2021/12/01 06:13:16;;;;;;;4.20;2.65;;;9.00;99.90;;;;;;5071536;28;20178;-43
2021/12/01 06:15:43;;;;;;;6.47;2.60;;;9.00;99.90;;;;;;5072153;28;20174;-43
2021/12/01 06:18:10;;;;;;;6.47;3.10;;;9.00;99.90;;;;;;5071905;28;20196;-43
2021/12/01 06:20:36;;;;;;;9.23;3.10;;;9.00;99.90;;;;;;5071843;28;20275;-43
2021/12/01 06:23:02;;;;;;;9.75;3.72;;;9.00;99.90;;;;;;5071749;28;20629;-43
2021/12/01 06:25:27;;;;;;;4.38;2.08;;;9.00;99.90;;;;;;5071283;28;20188;-43
2021/12/01 06:27:56;;;;;;;7.22;2.40;;;9.00;99.90;;;;;;5072285;28;20291;-43
2021/12/01 06:30:24;;;;;;;1.83;1.60;;;9.00;99.90;;;;;;5072116;28;20170;-43
2021/12/01 06:32:50;;;;;;;3.25;1.23;;;9.00;99.90;;;;;;5071755;28;20166;-43
2021/12/01 06:35:17;;;;;;;1.10;1.00;;;9.10;99.90;;;;;;5071465;28;20166;-43
2021/12/01 06:37:43;;;;;;;3.22;1.33;;;9.10;99.90;;;;;;5071603;28;20529;-43
2021/12/01 06:40:11;;;;;;;3.55;1.00;;;9.10;99.90;;;;;;5071635;28;20216;-43
2021/12/01 06:42:36;;;;;;;5.78;1.00;;;9.10;99.90;;;;;;5071694;28;20202;-43
2021/12/01 06:45:04;;;;;;;3.15;1.35;;;9.10;99.90;;;;;;5071848;28;20206;-43
2021/12/01 06:47:30;;;;;;;2.55;1.40;;;9.20;99.90;;;;;;5071696;28;20189;-43
2021/12/01 06:49:56;;;;;;;1.40;1.30;;;9.20;99.90;;;;;;5071831;28;20213;-42
2021/12/01 06:52:21;;;;;;;0.52;0.52;;;9.20;99.90;;;;;;5072122;28;20517;-43
2021/12/01 06:54:47;;;;;;;1.05;0.60;;;9.30;99.90;;;;;;5071844;28;20174;-43
2021/12/01 06:57:12;;;;;;;0.77;0.73;;;9.30;99.90;;;;;;5071559;28;20170;-43
2021/12/01 06:59:38;;;;;;;0.43;0.43;;;9.30;99.90;;;;;;5071148;28;20209;-43
2021/12/01 07:02:04;;;;;;;1.05;0.88;;;9.30;99.90;;;;;;5071359;28;20171;-43
2021/12/01 07:04:30;;;;;;;2.10;0.50;;;9.20;99.90;;;;;;5071408;28;20174;-42
2021/12/01 07:06:58;;;;;;;2.72;0.47;;;9.30;99.90;;;;;;5071066;28;20579;-43
2021/12/01 07:09:25;;;;;;;0.40;0.40;;;9.30;99.90;;;;;;5071235;28;20241;-43
2021/12/01 07:11:51;;;;;;;2.28;0.60;;;9.30;99.90;;;;;;5071188;28;20166;-42
2021/12/01 07:14:16;;;;;;;0.70;0.50;;;9.30;99.90;;;;;;5070937;28;20174;-44
2021/12/01 07:16:43;;;;;;;0.60;0.50;;;9.40;99.90;;;;;;5071043;28;20188;-42
2021/12/01 07:19:09;;;;;;;0.15;0.13;;;9.30;99.90;;;;;;5071134;28;20182;-43
2021/12/01 07:21:35;;;;;;;0.50;0.45;;;9.40;99.90;;;;;;5071254;28;20265;-43
2021/12/01 07:24:02;;;;;;;0.80;0.30;;;9.40;99.90;;;;;;5071160;28;20215;-43
2021/12/01 07:26:28;;;;;;;1.45;0.40;;;9.40;99.90;;;;;;5071200;28;20173;-42
2021/12/01 07:28:53;;;;;;;0.50;0.50;;;9.40;99.90;;;;;;5071489;28;20174;-42
2021/12/01 07:31:19;;;;;;;1.13;0.50;;;9.40;99.90;;;;;;5072533;28;20227;-42
2021/12/01 07:33:45;;;;;;;0.77;0.60;;;9.40;99.90;;;;;;5074774;28;20253;-42
2021/12/01 07:36:10;;;;;;;0.47;0.40;;;9.40;99.90;;;;;;5074938;28;20228;-42
2021/12/01 07:38:36;;;;;;;0.95;0.57;;;9.40;99.90;;;;;;5074793;28;20170;-41
2021/12/01 07:41:01;;;;;;;0.95;0.77;;;9.30;99.90;;;;;;5074659;28;20538;-43
2021/12/01 07:43:27;;;;;;;1.70;0.50;;;9.40;99.90;;;;;;5074533;28;20211;-43
2021/12/01 07:45:52;;;;;;;1.05;0.60;;;9.40;99.90;;;;;;5074917;28;20579;-43
2021/12/01 07:48:18;;;;;;;13.43;1.35;;;9.40;99.90;;;;;;5074522;28;20169;-43
2021/12/01 07:50:44;;;;;;;2.25;0.70;;;9.40;99.90;;;;;;5074471;28;20582;-42
2021/12/01 07:53:09;;;;;;;1.20;0.90;;;9.30;99.90;;;;;;5074372;28;20170;-43
2021/12/01 07:55:35;;;;;;;1.00;0.40;;;9.30;99.90;;;;;;5074384;28;20209;-42
2021/12/01 07:58:01;;;;;;;1.13;0.65;;;9.30;99.90;;;;;;5074394;28;20270;-43
2021/12/01 08:00:27;;;;;;;0.85;0.32;;;9.30;99.90;;;;;;5074229;28;20232;-43
2021/12/01 08:02:53;;;;;;;0.77;0.50;;;9.40;99.90;;;;;;5074742;28;20163;-43
2021/12/01 08:05:19;;;;;;;0.82;0.30;;;9.30;99.90;;;;;;5074193;28;20532;-42
2021/12/01 08:07:44;;;;;;;0.85;0.40;;;9.40;99.90;;;;;;5074182;28;20207;-44
2021/12/01 08:10:10;;;;;;;5.18;0.60;;;9.40;99.90;;;;;;5074060;28;20225;-43
2021/12/01 08:12:36;;;;;;;0.82;0.45;;;9.40;99.90;;;;;;5074184;28;20166;-43
2021/12/01 08:15:03;;;;;;;0.40;0.20;;;9.40;99.90;;;;;;5074082;28;20174;-43
2021/12/01 08:17:29;;;;;;;0.73;0.22;;;9.40;99.90;;;;;;5073940;28;20162;-43
2021/12/01 08:19:57;;;;;;;0.65;0.38;;;9.50;99.90;;;;;;5074294;28;20209;-43
2021/12/01 08:22:24;;;;;;;0.20;0.20;;;9.50;99.90;;;;;;5074220;28;20227;-43
2021/12/01 08:24:51;;;;;;;0.50;0.30;;;9.50;99.90;;;;;;5073819;28;20162;-42
2021/12/01 08:27:16;;;;;;;0.52;0.40;;;9.50;99.90;;;;;;5073785;28;20526;-42
2021/12/01 08:29:42;;;;;;;0.30;0.30;;;9.50;99.90;;;;;;5074019;28;20170;-43
2021/12/01 08:32:08;;;;;;;0.10;0.10;;;9.50;99.90;;;;;;5073769;28;20315;-43
2021/12/01 08:34:33;;;;;;;0.45;0.45;;;9.60;99.90;;;;;;5073734;28;20169;-43
2021/12/01 08:36:59;;;;;;;0.77;0.35;;;9.60;99.90;;;;;;5073618;28;20529;-43
2021/12/01 08:39:24;;;;;;;0.50;0.40;;;9.60;99.90;;;;;;5073785;28;20193;-43
2021/12/01 08:41:50;;;;;;;0.50;0.30;;;9.60;99.90;;;;;;5073167;28;20626;-43
2021/12/01 08:44:16;;;;;;;0.35;0.35;;;9.60;99.90;;;;;;5073652;28;20170;-43
2021/12/01 08:46:41;;;;;;;2.00;0.28;;;9.70;99.90;;;;;;5073398;28;20177;-43
2021/12/01 08:49:07;;;;;;;0.28;0.17;;;9.70;99.90;;;;;;5073421;28;20166;-43
2021/12/01 08:51:33;;;;;;;0.77;0.35;;;9.70;99.90;;;;;;5073602;28;20174;-43
2021/12/01 08:53:58;;;;;;;0.20;0.20;;;9.60;99.90;;;;;;5073573;28;20221;-43
2021/12/01 08:56:24;;;;;;;0.50;0.17;;;9.60;99.90;;;;;;5073521;28;20594;-43
2021/12/01 08:58:50;;;;;;;0.38;0.28;;;9.60;99.90;;;;;;5073117;28;20185;-43
2021/12/01 09:01:15;;;;;;;0.32;0.32;;;9.50;99.90;;;;;;5073140;28;20174;-43
2021/12/01 09:03:41;;;;;;;0.08;0.08;;;9.50;99.90;;;;;;5073128;28;20618;-43
2021/12/01 09:06:07;;;;;;;0.10;0.10;;;9.50;99.90;;;;;;5073039;28;20176;-43
2021/12/01 09:08:33;;;;;;;3.63;0.50;;;9.40;99.90;;;;;;5072986;28;20221;-43
2021/12/01 09:11:02;;;;;;;1.17;0.70;;;9.40;99.90;;;;;;5073160;28;20248;-43
2021/12/01 09:13:30;;;;;;;1.55;0.30;;;9.40;99.90;;;;;;5073118;28;20166;-43
2021/12/01 09:15:56;;;;;;;0.50;0.50;;;9.40;99.90;;;;;;5072897;28;20166;-42
2021/12/01 09:18:24;;;;;;;1.85;0.40;;;9.30;99.90;;;;;;5073045;28;20243;-42
2021/12/01 09:20:50;;;;;;;1.55;0.65;;;9.30;99.90;;;;;;5072931;28;20271;-44
2021/12/01 09:23:17;;;;;;;1.85;0.40;;;9.30;99.90;;;;;;5072715;28;20177;-42
2021/12/01 09:25:43;;;;;;;0.30;0.30;;;9.30;99.90;;;;;;5072703;28;20638;-42
2021/12/01 09:28:09;;;;;;;0.73;0.20;;;9.30;99.90;;;;;;5072656;28;20237;-43
2021/12/01 09:30:35;;;;;;;2.65;0.75;;;9.30;99.90;;;;;;5072584;28;20199;-43
2021/12/01 09:33:00;;;;;;;2.08;0.22;;;9.30;99.90;;;;;;5072503;28;20201;-42
2021/12/01 09:35:26;;;;;;;0.65;0.22;;;9.30;99.90;;;;;;5072770;28;20225;-42
2021/12/01 09:37:52;;;;;;;1.50;0.40;;;9.30;99.90;;;;;;5072776;28;20170;-42
2021/12/01 09:40:19;;;;;;;0.10;0.10;;;9.40;99.90;;;;;;5072357;28;20205;-42
2021/12/01 09:42:48;;;;;;;0.35;0.35;;;9.40;99.90;;;;;;5072330;28;20158;-42
2021/12/01 09:45:16;;;;;;;0.38;0.38;;;9.50;99.90;;;;;;5072171;28;20166;-43
2021/12/01 09:47:43;;;;;;;0.22;0.22;;;9.50;99.90;;;;;;5072136;28;20538;-42
2021/12/01 09:50:09;;;;;;;0.20;0.20;;;9.60;99.90;;;;;;5072332;28;20165;-42
2021/12/01 09:52:35;;;;;;;0.52;0.43;;;9.60;99.90;;;;;;5071920;28;20249;-44
2021/12/01 09:55:01;;;;;;;0.32;0.30;;;9.60;99.90;;;;;;5071064;28;20249;-45
2021/12/01 09:57:27;;;;;;;0.73;0.10;;;9.60;99.90;;;;;;5072274;28;20502;-47
2021/12/01 09:59:53;;;;;;;0.63;0.45;;;9.60;99.90;;;;;;5072326;28;20198;-48
2021/12/01 10:02:19;;;;;;;0.73;0.52;;;9.60;99.90;;;;;;5072142;28;20158;-46
2021/12/01 10:04:45;;;;;;;0.45;0.40;;;9.70;99.90;;;;;;5071998;28;20227;-46
2021/12/01 10:07:19;;;;;;;0.47;0.47;;;9.70;99.90;;;;;;5071965;28;20578;-47
2021/12/01 10:09:50;;;;;;;0.50;0.50;;;9.70;99.90;;;;;;5071860;28;20210;-46
2021/12/01 10:12:16;;;;;;;0.25;0.25;;;9.70;99.90;;;;;;5072053;28;20254;-48
2021/12/01 10:14:47;;;;;;;0.10;0.10;;;9.70;99.90;;;;;;5071983;28;20587;-46
2021/12/01 10:17:14;;;;;;;0.68;0.68;;;11.10;99.90;;;;;;5072213;28;20178;-46
2021/12/01 10:19:39;;;;;;;1.25;0.90;;;9.70;99.90;;;;;;5070521;28;20787;-41
2021/12/01 10:22:10;;;;;;;1.42;1.23;;;9.80;99.90;;;;;;5070583;28;20182;-43
2021/12/01 10:24:37;;;;;;;1.10;0.50;;;9.80;99.90;;;;;;5070713;28;20215;-45
2021/12/01 10:27:10;;;;;;;0.13;0.13;;;9.80;99.90;;;;;;5070652;28;20165;-47
2021/12/01 10:29:49;;;;;;;1.50;0.52;;;9.80;99.90;;;;;;5070628;28;20162;-44
2021/12/01 10:32:17;;;;;;;0.10;0.10;;;9.90;99.90;;;;;;5070788;28;20174;-43
2021/12/01 10:34:50;;;;;;;2.83;0.30;;;9.90;99.90;;;;;;5070619;28;20162;-44
2021/12/01 10:37:29;;;;;;;2.17;0.43;;;9.90;99.90;;;;;;5070414;28;20549;-45
2021/12/01 10:40:08;;;;;;;0.43;0.20;;;9.90;99.90;;;;;;5070834;28;20209;-45
2021/12/01 10:42:34;;;;;;;0.57;0.32;;;9.90;99.90;;;;;;5070572;28;20195;-44
2021/12/01 10:45:06;;;;;;;0.40;0.35;;;9.90;99.90;;;;;;5070121;28;20311;-45
2021/12/01 10:47:40;;;;;;;0.30;0.30;;;9.80;99.90;;;;;;5070300;28;20638;-44
2021/12/01 10:50:08;;;;;;;1.00;0.73;;;9.90;99.90;;;;;;5070200;28;20169;-45
2021/12/01 10:52:41;;;;;;;0.65;0.30;;;9.80;99.90;;;;;;5070097;28;20180;-44
2021/12/01 10:55:14;;;;;;;0.20;0.20;;;9.90;99.90;;;;;;5070295;28;20528;-44
2021/12/01 10:57:43;;;;;;;0.20;0.20;;;9.80;99.90;;;;;;5070492;28;20174;-44
2021/12/01 11:00:18;;;;;;;2.25;0.32;;;9.90;99.90;;;;;;5070301;28;20646;-45
2021/12/01 11:02:43;;;;;;;0.30;0.30;;;9.90;99.90;;;;;;5070233;28;20269;-45
2021/12/01 11:05:09;;;;;;;0.17;0.17;;;9.90;99.90;;;;;;5071376;28;20244;-44
2021/12/01 11:07:36;;;;;;;1.85;0.43;;;9.90;99.90;;;;;;5070521;28;20707;-44
2021/12/01 11:10:13;;;;;;;0.35;0.35;;;9.90;99.90;;;;;;5073075;28;20221;-44
2021/12/01 11:12:39;;;;;;;0.35;0.35;;;10.00;99.90;;;;;;5072528;28;20257;-45
2021/12/01 11:15:41;;;;;;;0.85;0.30;;;9.90;99.90;;;;;;5073148;28;20249;-44
2021/12/01 11:18:15;;;;;;;0.73;0.20;;;10.00;99.90;;;;;;5011371;28;20179;-45
2021/12/01 11:20:43;;;;;;;0.15;0.15;;;9.90;99.90;;;;;;5060309;28;20221;-44
2021/12/01 11:23:09;;;;;;;0.13;0.13;;;9.90;99.90;;;;;;5073476;28;20170;-44
2021/12/01 11:25:36;;;;;;;1.15;0.30;;;9.90;99.90;;;;;;5073348;28;20566;-44
2021/12/01 11:28:03;;;;;;;0.88;0.85;;;9.90;99.90;;;;;;5073496;28;20215;-45
2021/12/01 11:30:29;;;;;;;2.20;0.20;;;10.00;99.90;;;;;;5073079;28;20751;-44
2021/12/01 11:32:55;;;;;;;0.25;0.25;;;10.00;99.90;;;;;;5069924;28;20166;-44
2021/12/01 11:35:21;;;;;;;0.43;0.13;;;10.00;99.90;;;;;;5073122;28;20166;-44
2021/12/01 11:37:55;;;;;;;0.32;0.30;;;10.00;99.90;;;;;;5073339;28;20177;-44
2021/12/01 11:40:28;;;;;;;2.45;0.40;;;9.90;99.90;;;;;;5073104;28;20637;-44
2021/12/01 11:42:55;;;;;;;0.15;0.10;;;9.90;99.90;;;;;;5073783;28;20169;-43
2021/12/01 11:45:20;;;;;;;0.50;0.50;;;9.90;99.90;;;;;;5072953;28;20261;-45
2021/12/01 11:47:47;;;;;;;0.30;0.30;;;9.90;99.90;;;;;;5073137;28;20253;-44
2021/12/01 11:50:31;;;;;;;0.40;0.40;;;9.80;99.90;;;;;;5073355;28;20177;-43
2021/12/01 11:53:18;;;;;;;0.38;0.30;;;9.70;99.90;;;;;;5073550;28;20170;-44
2021/12/01 11:55:59;;;;;;;0.65;0.65;;;9.70;99.90;;;;;;5073119;28;20169;-44
2021/12/01 11:58:51;;;;;;;1.33;1.05;;;9.80;99.90;;;;;;5073849;28;20220;-43
2021/12/01 12:01:19;;;;;;;0.90;0.90;;;9.80;99.90;;;;;;5073498;28;20214;-44
2021/12/01 12:04:05;;;;;;;1.85;1.00;;;9.80;99.90;;;;;;5073244;28;20189;-44
2021/12/01 12:06:44;;;;;;;1.95;1.05;;;9.80;99.90;;;;;;5072892;28;20181;-44
2021/12/01 12:09:12;;;;;;;0.75;0.73;;;9.80;99.90;;;;;;5072925;28;20237;-44
2021/12/01 12:11:52;;;;;;;2.50;1.02;;;9.80;99.90;;;;;;5072630;28;20252;-43
2021/12/01 12:14:21;;;;;;;1.60;1.13;;;9.80;99.90;;;;;;5072779;28;20181;-44
2021/12/01 12:17:12;;;;;;;1.77;1.23;;;9.70;99.90;;;;;;5072167;28;20174;-44
2021/12/01 12:19:44;;;;;;;1.60;1.50;;;9.70;99.90;;;;;;5072531;28;20209;-43
2021/12/01 12:22:21;;;;;;;3.20;1.40;;;9.60;99.90;;;;;;5072651;28;20190;-43
2021/12/01 12:24:52;;;;;;;2.58;1.38;;;9.50;99.90;;;;;;5072869;28;20177;-43
2021/12/01 12:27:40;;;;;;;4.82;1.70;;;9.40;99.90;;;;;;5072536;28;20644;-44
2021/12/01 12:30:08;;;;;;;3.08;1.60;;;9.30;99.90;;;;;;5072318;28;20715;-44
2021/12/01 12:32:35;;;;;;;2.20;1.30;;;9.30;99.90;;;;;;5072639;28;20166;-45
2021/12/01 12:35:07;;;;;;;2.25;1.52;;;9.20;99.90;;;;;;5072623;28;20186;-44
2021/12/01 12:37:35;;;;;;;4.88;1.55;;;9.20;99.90;;;;;;5072639;28;20177;-47
2021/12/01 12:40:06;;;;;;;4.18;1.52;;;9.10;99.90;;;;;;5072184;28;20681;-46
2021/12/01 12:42:31;;;;;;;1.60;1.30;;;9.20;99.90;;;;;;5072448;28;20173;-45
2021/12/01 12:44:58;;;;;;;2.00;1.55;;;9.20;99.90;;;;;;5070178;28;20177;-44
2021/12/01 12:47:26;;;;;;;1.75;1.30;;;9.20;99.90;;;;;;5072564;28;20162;-46
2021/12/01 12:50:18;;;;;;;5.40;1.63;;;9.20;99.90;;;;;;5072241;28;20241;-44
2021/12/01 12:53:03;;;;;;;5.43;1.80;;;9.30;99.90;;;;;;5068976;28;20550;-45
2021/12/01 12:55:29;;;;;;;3.17;1.55;;;9.20;99.90;;;;;;5071949;28;20166;-45
2021/12/01 12:58:09;;;;;;;6.15;1.60;;;9.20;99.90;;;;;;5070711;28;20177;-44
2021/12/01 13:00:46;;;;;;;2.10;1.33;;;9.20;99.90;;;;;;5071969;28;20346;-45
2021/12/01 13:03:17;;;;;;;5.63;1.73;;;9.20;99.90;;;;;;5072120;28;20204;-44
2021/12/01 13:05:43;;;;;;;1.92;1.40;;;9.20;99.90;;;;;;5071826;28;20178;-44
2021/12/01 13:08:30;;;;;;;4.07;1.25;;;9.20;99.90;;;;;;5071569;28;20652;-46